createdAt,value
2023-04-15T00:00:17.000Z,1011.95
2023-04-15T00:01:18.000Z,1011.96
2023-04-15T00:02:18.000Z,1012.01
2023-04-15T00:03:19.000Z,1012.04
2023-04-15T00:04:19.000Z,1012.01
2023-04-15T00:05:20.000Z,1012.0
2023-04-15T00:06:20.000Z,1011.92
2023-04-15T00:07:21.000Z,1011.93
2023-04-15T00:08:21.000Z,1011.94
2023-04-15T00:09:22.000Z,1011.96
2023-04-15T00:10:22.000Z,1011.97
2023-04-15T00:11:23.000Z,1011.95
2023-04-15T00:12:23.000Z,1011.98
2023-04-15T00:13:24.000Z,1012.03
2023-04-15T00:14:24.000Z,1011.99
2023-04-15T00:15:25.000Z,1012.0
2023-04-15T00:16:25.000Z,1011.96
2023-04-15T00:17:26.000Z,1011.99
2023-04-15T00:18:26.000Z,1011.97
2023-04-15T00:19:27.000Z,1011.94
2023-04-15T00:20:27.000Z,1011.92
2023-04-15T00:21:28.000Z,1011.88
2023-04-15T00:22:28.000Z,1011.85
2023-04-15T00:23:28.000Z,1011.83
2023-04-15T00:24:29.000Z,1011.83
2023-04-15T00:25:29.000Z,1011.89
2023-04-15T00:26:30.000Z,1011.86
2023-04-15T00:27:30.000Z,1011.87
2023-04-15T00:28:31.000Z,1011.8
2023-04-15T00:29:31.000Z,1011.87
2023-04-15T00:30:32.000Z,1011.85
2023-04-15T00:31:32.000Z,1011.88
2023-04-15T00:32:33.000Z,1011.85
2023-04-15T00:33:33.000Z,1011.87
2023-04-15T00:34:34.000Z,1011.81
2023-04-15T00:35:34.000Z,1011.85
2023-04-15T00:36:35.000Z,1011.85
2023-04-15T00:37:35.000Z,1011.84
2023-04-15T00:38:36.000Z,1011.82
2023-04-15T00:39:36.000Z,1011.84
2023-04-15T00:40:37.000Z,1011.86
2023-04-15T00:41:37.000Z,1011.89
2023-04-15T00:42:38.000Z,1011.87
2023-04-15T00:43:38.000Z,1011.85
2023-04-15T00:44:39.000Z,1011.86
2023-04-15T00:45:39.000Z,1011.8
2023-04-15T00:46:40.000Z,1011.82
2023-04-15T00:47:40.000Z,1011.84
2023-04-15T00:48:41.000Z,1011.9
2023-04-15T00:49:41.000Z,1011.85
2023-04-15T00:50:42.000Z,1011.88
2023-04-15T00:51:42.000Z,1011.83
2023-04-15T00:52:43.000Z,1011.82
2023-04-15T00:53:43.000Z,1011.79
2023-04-15T00:54:44.000Z,1011.81
2023-04-15T00:55:44.000Z,1011.74
2023-04-15T00:56:45.000Z,1011.74
2023-04-15T00:57:45.000Z,1011.73
2023-04-15T00:58:46.000Z,1011.78
2023-04-15T00:59:46.000Z,1011.74
2023-04-15T01:00:47.000Z,1011.77
2023-04-15T01:01:47.000Z,1011.76
2023-04-15T01:02:53.000Z,1011.7
2023-04-15T01:03:53.000Z,1011.74
2023-04-15T01:04:54.000Z,1011.74
2023-04-15T01:05:54.000Z,1011.67
2023-04-15T01:06:55.000Z,1011.7
2023-04-15T01:07:55.000Z,1011.7
2023-04-15T01:08:56.000Z,1011.68
2023-04-15T01:09:56.000Z,1011.61
2023-04-15T01:10:57.000Z,1011.62
2023-04-15T01:11:57.000Z,1011.59
2023-04-15T01:12:58.000Z,1011.61
2023-04-15T01:13:58.000Z,1011.64
2023-04-15T01:14:59.000Z,1011.59
2023-04-15T01:16:00.000Z,1011.6
2023-04-15T01:17:00.000Z,1011.59
2023-04-15T01:18:01.000Z,1011.57
2023-04-15T01:19:01.000Z,1011.54
2023-04-15T01:20:02.000Z,1011.56
2023-04-15T01:21:02.000Z,1011.57
2023-04-15T01:22:03.000Z,1011.54
2023-04-15T01:23:04.000Z,1011.48
2023-04-15T01:24:04.000Z,1011.42
2023-04-15T01:25:05.000Z,1011.51
2023-04-15T01:26:05.000Z,1011.46
2023-04-15T01:27:06.000Z,1011.47
2023-04-15T01:28:06.000Z,1011.48
2023-04-15T01:29:07.000Z,1011.44
2023-04-15T01:30:07.000Z,1011.43
2023-04-15T01:31:08.000Z,1011.41
2023-04-15T01:32:08.000Z,1011.39
2023-04-15T01:33:09.000Z,1011.41
2023-04-15T01:34:10.000Z,1011.34
2023-04-15T01:35:10.000Z,1011.34
2023-04-15T01:36:11.000Z,1011.28
2023-04-15T01:37:11.000Z,1011.22
2023-04-15T01:38:12.000Z,1011.29
2023-04-15T01:39:12.000Z,1011.3
2023-04-15T01:40:13.000Z,1011.26
2023-04-15T01:41:13.000Z,1011.26
2023-04-15T01:42:14.000Z,1011.25
2023-04-15T01:43:14.000Z,1011.25
2023-04-15T01:44:15.000Z,1011.26
2023-04-15T01:45:15.000Z,1011.18
2023-04-15T01:46:16.000Z,1011.2
2023-04-15T01:47:16.000Z,1011.21
2023-04-15T01:48:17.000Z,1011.21
2023-04-15T01:49:17.000Z,1011.18
2023-04-15T01:50:18.000Z,1011.16
2023-04-15T01:51:18.000Z,1011.12
2023-04-15T01:52:19.000Z,1011.16
2023-04-15T01:53:19.000Z,1011.17
2023-04-15T01:54:20.000Z,1011.17
2023-04-15T01:55:20.000Z,1011.1
2023-04-15T01:56:21.000Z,1011.17
2023-04-15T01:57:22.000Z,1011.17
2023-04-15T01:58:22.000Z,1011.18
2023-04-15T01:59:23.000Z,1011.19
2023-04-15T02:00:23.000Z,1011.18
2023-04-15T02:01:24.000Z,1011.18
2023-04-15T02:02:24.000Z,1011.15
2023-04-15T02:03:25.000Z,1011.2
2023-04-15T02:04:25.000Z,1011.14
2023-04-15T02:05:26.000Z,1011.19
2023-04-15T02:06:26.000Z,1011.14
2023-04-15T02:07:27.000Z,1011.12
2023-04-15T02:08:27.000Z,1011.16
2023-04-15T02:09:28.000Z,1011.2
2023-04-15T02:10:28.000Z,1011.16
2023-04-15T02:11:29.000Z,1011.14
2023-04-15T02:12:29.000Z,1011.14
2023-04-15T02:13:30.000Z,1011.22
2023-04-15T02:14:30.000Z,1011.21
2023-04-15T02:15:31.000Z,1011.16
2023-04-15T02:16:31.000Z,1011.14
2023-04-15T02:17:32.000Z,1011.15
2023-04-15T02:18:32.000Z,1011.14
2023-04-15T02:19:33.000Z,1011.1
2023-04-15T02:20:34.000Z,1011.01
2023-04-15T02:21:34.000Z,1011.0
2023-04-15T02:22:35.000Z,1010.98
2023-04-15T02:23:35.000Z,1011.03
2023-04-15T02:24:36.000Z,1011.04
2023-04-15T02:25:36.000Z,1011.01
2023-04-15T02:26:37.000Z,1011.01
2023-04-15T02:27:38.000Z,1011.03
2023-04-15T02:28:38.000Z,1011.0
2023-04-15T02:29:39.000Z,1010.98
2023-04-15T02:30:39.000Z,1011.0
2023-04-15T02:31:40.000Z,1011.03
2023-04-15T02:32:40.000Z,1011.01
2023-04-15T02:33:41.000Z,1011.0
2023-04-15T02:34:41.000Z,1010.94
2023-04-15T02:35:42.000Z,1010.97
2023-04-15T02:36:42.000Z,1010.96
2023-04-15T02:37:43.000Z,1010.94
2023-04-15T02:38:43.000Z,1010.94
2023-04-15T02:39:44.000Z,1010.91
2023-04-15T02:40:44.000Z,1010.95
2023-04-15T02:41:45.000Z,1010.96
2023-04-15T02:42:46.000Z,1010.9
2023-04-15T02:43:46.000Z,1010.98
2023-04-15T02:44:47.000Z,1011.01
2023-04-15T02:45:47.000Z,1011.02
2023-04-15T02:46:48.000Z,1010.97
2023-04-15T02:47:48.000Z,1010.96
2023-04-15T02:48:49.000Z,1010.99
2023-04-15T02:49:49.000Z,1010.98
2023-04-15T02:50:50.000Z,1010.98
2023-04-15T02:51:50.000Z,1010.99
2023-04-15T02:52:51.000Z,1011.01
2023-04-15T02:53:51.000Z,1010.99
2023-04-15T02:54:52.000Z,1010.97
2023-04-15T02:55:52.000Z,1010.99
2023-04-15T02:56:53.000Z,1011.0
2023-04-15T02:57:54.000Z,1011.01
2023-04-15T02:58:54.000Z,1011.05
2023-04-15T02:59:55.000Z,1011.04
2023-04-15T03:00:55.000Z,1011.07
2023-04-15T03:01:56.000Z,1011.06
2023-04-15T03:02:56.000Z,1011.01
2023-04-15T03:03:57.000Z,1011.06
2023-04-15T03:04:57.000Z,1011.04
2023-04-15T03:05:58.000Z,1011.04
2023-04-15T03:06:59.000Z,1011.07
2023-04-15T03:07:59.000Z,1011.05
2023-04-15T03:09:00.000Z,1011.04
2023-04-15T03:10:00.000Z,1011.05
2023-04-15T03:11:01.000Z,1011.05
2023-04-15T03:12:02.000Z,1011.02
2023-04-15T03:13:02.000Z,1011.03
2023-04-15T03:14:03.000Z,1011.07
2023-04-15T03:15:03.000Z,1011.01
2023-04-15T03:16:04.000Z,1010.97
2023-04-15T03:17:04.000Z,1011.0
2023-04-15T03:18:05.000Z,1010.97
2023-04-15T03:19:05.000Z,1010.92
2023-04-15T03:20:06.000Z,1010.96
2023-04-15T03:21:06.000Z,1010.89
2023-04-15T03:22:07.000Z,1010.87
2023-04-15T03:23:07.000Z,1010.85
2023-04-15T03:24:08.000Z,1010.84
2023-04-15T03:25:08.000Z,1010.77
2023-04-15T03:26:09.000Z,1010.82
2023-04-15T03:27:10.000Z,1010.75
2023-04-15T03:28:10.000Z,1010.82
2023-04-15T03:29:11.000Z,1010.78
2023-04-15T03:30:11.000Z,1010.75
2023-04-15T03:31:12.000Z,1010.76
2023-04-15T03:32:12.000Z,1010.7
2023-04-15T03:33:13.000Z,1010.75
2023-04-15T03:34:13.000Z,1010.66
2023-04-15T03:35:14.000Z,1010.71
2023-04-15T03:36:14.000Z,1010.65
2023-04-15T03:37:20.000Z,1010.6
2023-04-15T03:38:20.000Z,1010.68
2023-04-15T03:39:20.000Z,1010.68
2023-04-15T03:40:21.000Z,1010.7
2023-04-15T03:41:21.000Z,1010.7
2023-04-15T03:42:22.000Z,1010.73
2023-04-15T03:43:22.000Z,1010.82
2023-04-15T03:44:23.000Z,1010.85
2023-04-15T03:45:24.000Z,1010.88
2023-04-15T03:46:24.000Z,1010.91
2023-04-15T03:47:25.000Z,1010.9
2023-04-15T03:48:25.000Z,1010.91
2023-04-15T03:49:26.000Z,1010.9
2023-04-15T03:50:26.000Z,1010.85
2023-04-15T03:51:27.000Z,1010.85
2023-04-15T03:52:27.000Z,1010.89
2023-04-15T03:53:28.000Z,1010.83
2023-04-15T03:54:28.000Z,1010.81
2023-04-15T03:55:29.000Z,1010.78
2023-04-15T03:56:29.000Z,1010.81
2023-04-15T03:57:30.000Z,1010.74
2023-04-15T03:58:30.000Z,1010.76
2023-04-15T03:59:31.000Z,1010.72
2023-04-15T04:00:31.000Z,1010.67
2023-04-15T04:01:32.000Z,1010.68
2023-04-15T04:02:32.000Z,1010.71
2023-04-15T04:03:33.000Z,1010.71
2023-04-15T04:04:33.000Z,1010.77
2023-04-15T04:05:34.000Z,1010.79
2023-04-15T04:06:34.000Z,1010.74
2023-04-15T04:07:35.000Z,1010.84
2023-04-15T04:08:35.000Z,1010.78
2023-04-15T04:09:36.000Z,1010.89
2023-04-15T04:10:36.000Z,1010.87
2023-04-15T04:11:37.000Z,1010.88
2023-04-15T04:12:37.000Z,1010.85
2023-04-15T04:13:38.000Z,1010.84
2023-04-15T04:14:38.000Z,1010.78
2023-04-15T04:15:39.000Z,1010.77
2023-04-15T04:16:39.000Z,1010.76
2023-04-15T04:17:40.000Z,1010.77
2023-04-15T04:18:40.000Z,1010.8
2023-04-15T04:19:41.000Z,1010.82
2023-04-15T04:20:41.000Z,1010.8
2023-04-15T04:21:42.000Z,1010.74
2023-04-15T04:22:42.000Z,1010.74
2023-04-15T04:23:43.000Z,1010.81
2023-04-15T04:24:43.000Z,1010.74
2023-04-15T04:25:44.000Z,1010.76
2023-04-15T04:26:44.000Z,1010.81
2023-04-15T04:27:45.000Z,1010.8
2023-04-15T04:28:46.000Z,1010.82
2023-04-15T04:29:46.000Z,1010.86
2023-04-15T04:30:47.000Z,1010.84
2023-04-15T04:31:47.000Z,1010.89
2023-04-15T04:32:48.000Z,1010.9
2023-04-15T04:33:48.000Z,1010.82
2023-04-15T04:34:49.000Z,1010.87
2023-04-15T04:35:49.000Z,1010.87
2023-04-15T04:36:50.000Z,1010.84
2023-04-15T04:37:50.000Z,1010.86
2023-04-15T04:38:51.000Z,1010.9
2023-04-15T04:39:51.000Z,1010.89
2023-04-15T04:40:52.000Z,1010.85
2023-04-15T04:41:53.000Z,1010.87
2023-04-15T04:42:53.000Z,1010.86
2023-04-15T04:43:54.000Z,1010.9
2023-04-15T04:44:54.000Z,1010.87
2023-04-15T04:45:55.000Z,1010.85
2023-04-15T04:46:55.000Z,1010.83
2023-04-15T04:47:56.000Z,1010.85
2023-04-15T04:48:56.000Z,1010.82
2023-04-15T04:49:57.000Z,1010.85
2023-04-15T04:50:57.000Z,1010.84
2023-04-15T04:51:58.000Z,1010.87
2023-04-15T04:52:59.000Z,1010.85
2023-04-15T04:53:59.000Z,1010.87
2023-04-15T04:55:00.000Z,1010.88
2023-04-15T04:56:00.000Z,1010.89
2023-04-15T04:57:01.000Z,1010.85
2023-04-15T04:58:01.000Z,1010.86
2023-04-15T04:59:02.000Z,1010.79
2023-04-15T05:00:02.000Z,1010.72
2023-04-15T05:01:03.000Z,1010.71
2023-04-15T05:02:03.000Z,1010.75
2023-04-15T05:03:04.000Z,1010.79
2023-04-15T05:04:04.000Z,1010.75
2023-04-15T05:05:05.000Z,1010.72
2023-04-15T05:06:05.000Z,1010.77
2023-04-15T05:07:06.000Z,1010.74
2023-04-15T05:08:06.000Z,1010.78
2023-04-15T05:09:07.000Z,1010.78
2023-04-15T05:10:07.000Z,1010.66
2023-04-15T05:11:08.000Z,1010.75
2023-04-15T05:12:13.000Z,1010.69
2023-04-15T05:13:14.000Z,1010.73
2023-04-15T05:14:15.000Z,1010.7
2023-04-15T05:15:15.000Z,1010.76
2023-04-15T05:16:16.000Z,1010.68
2023-04-15T05:17:16.000Z,1010.71
2023-04-15T05:18:17.000Z,1010.66
2023-04-15T05:19:17.000Z,1010.61
2023-04-15T05:20:18.000Z,1010.7
2023-04-15T05:21:18.000Z,1010.71
2023-04-15T05:22:19.000Z,1010.67
2023-04-15T05:23:19.000Z,1010.65
2023-04-15T05:24:20.000Z,1010.66
2023-04-15T05:25:20.000Z,1010.66
2023-04-15T05:26:21.000Z,1010.6
2023-04-15T05:27:22.000Z,1010.6
2023-04-15T05:28:22.000Z,1010.57
2023-04-15T05:29:23.000Z,1010.61
2023-04-15T05:30:23.000Z,1010.61
2023-04-15T05:31:24.000Z,1010.64
2023-04-15T05:32:24.000Z,1010.6
2023-04-15T05:33:24.000Z,1010.61
2023-04-15T05:34:25.000Z,1010.65
2023-04-15T05:35:25.000Z,1010.71
2023-04-15T05:36:26.000Z,1010.67
2023-04-15T05:37:27.000Z,1010.62
2023-04-15T05:38:27.000Z,1010.65
2023-04-15T05:39:28.000Z,1010.63
2023-04-15T05:40:28.000Z,1010.66
2023-04-15T05:41:29.000Z,1010.61
2023-04-15T05:42:29.000Z,1010.67
2023-04-15T05:43:30.000Z,1010.67
2023-04-15T05:44:30.000Z,1010.71
2023-04-15T05:45:31.000Z,1010.69
2023-04-15T05:46:31.000Z,1010.68
2023-04-15T05:47:32.000Z,1010.67
2023-04-15T05:48:32.000Z,1010.72
2023-04-15T05:49:33.000Z,1010.71
2023-04-15T05:50:33.000Z,1010.72
2023-04-15T05:51:34.000Z,1010.76
2023-04-15T05:52:35.000Z,1010.75
2023-04-15T05:53:35.000Z,1010.71
2023-04-15T05:54:36.000Z,1010.76
2023-04-15T05:55:36.000Z,1010.74
2023-04-15T05:56:36.000Z,1010.69
2023-04-15T05:57:37.000Z,1010.74
2023-04-15T05:58:38.000Z,1010.73
2023-04-15T05:59:38.000Z,1010.72
2023-04-15T06:00:39.000Z,1010.69
2023-04-15T06:01:39.000Z,1010.72
2023-04-15T06:02:40.000Z,1010.72
2023-04-15T06:03:40.000Z,1010.8
2023-04-15T06:04:41.000Z,1010.75
2023-04-15T06:05:41.000Z,1010.7
2023-04-15T06:06:42.000Z,1010.74
2023-04-15T06:07:42.000Z,1010.81
2023-04-15T06:08:43.000Z,1010.77
2023-04-15T06:09:43.000Z,1010.81
2023-04-15T06:10:44.000Z,1010.78
2023-04-15T06:11:44.000Z,1010.82
2023-04-15T06:12:45.000Z,1010.81
2023-04-15T06:13:45.000Z,1010.81
2023-04-15T06:14:46.000Z,1010.79
2023-04-15T06:15:46.000Z,1010.78
2023-04-15T06:16:47.000Z,1010.8
2023-04-15T06:17:53.000Z,1010.8
2023-04-15T06:18:53.000Z,1010.78
2023-04-15T06:19:54.000Z,1010.78
2023-04-15T06:20:54.000Z,1010.8
2023-04-15T06:21:55.000Z,1010.78
2023-04-15T06:22:55.000Z,1010.75
2023-04-15T06:23:56.000Z,1010.73
2023-04-15T06:24:56.000Z,1010.75
2023-04-15T06:25:57.000Z,1010.74
2023-04-15T06:26:57.000Z,1010.82
2023-04-15T06:27:58.000Z,1010.78
2023-04-15T06:28:58.000Z,1010.75
2023-04-15T06:29:59.000Z,1010.77
2023-04-15T06:31:00.000Z,1010.77
2023-04-15T06:32:00.000Z,1010.73
2023-04-15T06:33:01.000Z,1010.75
2023-04-15T06:34:01.000Z,1010.74
2023-04-15T06:35:02.000Z,1010.74
2023-04-15T06:36:02.000Z,1010.73
2023-04-15T06:37:03.000Z,1010.77
2023-04-15T06:38:03.000Z,1010.73
2023-04-15T06:39:04.000Z,1010.75
2023-04-15T06:40:04.000Z,1010.77
2023-04-15T06:41:05.000Z,1010.75
2023-04-15T06:42:05.000Z,1010.78
2023-04-15T06:43:06.000Z,1010.83
2023-04-15T06:44:06.000Z,1010.87
2023-04-15T06:45:07.000Z,1010.94
2023-04-15T06:46:07.000Z,1010.91
2023-04-15T06:47:08.000Z,1010.94
2023-04-15T06:48:08.000Z,1010.92
2023-04-15T06:49:09.000Z,1010.96
2023-04-15T06:50:10.000Z,1010.93
2023-04-15T06:51:10.000Z,1010.96
2023-04-15T06:52:11.000Z,1010.97
2023-04-15T06:53:11.000Z,1011.02
2023-04-15T06:54:12.000Z,1011.01
2023-04-15T06:55:12.000Z,1010.97
2023-04-15T06:56:13.000Z,1011.02
2023-04-15T06:57:13.000Z,1010.99
2023-04-15T06:58:14.000Z,1010.98
2023-04-15T06:59:14.000Z,1010.96
2023-04-15T07:00:15.000Z,1010.98
2023-04-15T07:01:16.000Z,1011.03
2023-04-15T07:02:16.000Z,1011.0
2023-04-15T07:03:17.000Z,1011.03
2023-04-15T07:04:17.000Z,1011.08
2023-04-15T07:05:18.000Z,1011.12
2023-04-15T07:06:18.000Z,1011.07
2023-04-15T07:07:19.000Z,1011.0
2023-04-15T07:08:19.000Z,1010.95
2023-04-15T07:09:20.000Z,1010.89
2023-04-15T07:10:20.000Z,1010.84
2023-04-15T07:11:21.000Z,1010.9
2023-04-15T07:12:26.000Z,1010.84
2023-04-15T07:13:27.000Z,1010.81
2023-04-15T07:14:27.000Z,1010.82
2023-04-15T07:15:28.000Z,1010.83
2023-04-15T07:16:28.000Z,1010.8
2023-04-15T07:17:29.000Z,1010.89
2023-04-15T07:18:29.000Z,1010.82
2023-04-15T07:19:30.000Z,1010.89
2023-04-15T07:20:30.000Z,1010.87
2023-04-15T07:21:31.000Z,1010.9
2023-04-15T07:22:32.000Z,1010.86
2023-04-15T07:23:32.000Z,1010.86
2023-04-15T07:24:33.000Z,1010.9
2023-04-15T07:25:33.000Z,1010.96
2023-04-15T07:26:34.000Z,1010.91
2023-04-15T07:27:34.000Z,1010.96
2023-04-15T07:28:35.000Z,1010.99
2023-04-15T07:29:35.000Z,1011.04
2023-04-15T07:30:36.000Z,1011.04
2023-04-15T07:31:36.000Z,1010.99
2023-04-15T07:32:37.000Z,1010.99
2023-04-15T07:33:37.000Z,1010.97
2023-04-15T07:34:38.000Z,1010.95
2023-04-15T07:35:38.000Z,1010.98
2023-04-15T07:36:39.000Z,1010.92
2023-04-15T07:37:39.000Z,1010.87
2023-04-15T07:38:40.000Z,1010.96
2023-04-15T07:39:41.000Z,1010.92
2023-04-15T07:40:41.000Z,1010.99
2023-04-15T07:41:42.000Z,1011.0
2023-04-15T07:42:42.000Z,1011.02
2023-04-15T07:43:43.000Z,1011.05
2023-04-15T07:44:43.000Z,1011.08
2023-04-15T07:45:44.000Z,1011.06
2023-04-15T07:46:45.000Z,1011.08
2023-04-15T07:47:45.000Z,1011.11
2023-04-15T07:48:46.000Z,1011.05
2023-04-15T07:49:47.000Z,1011.09
2023-04-15T07:50:48.000Z,1011.18
2023-04-15T07:51:48.000Z,1011.2
2023-04-15T07:52:49.000Z,1011.23
2023-04-15T07:53:49.000Z,1011.16
2023-04-15T07:54:50.000Z,1011.13
2023-04-15T07:55:50.000Z,1011.16
2023-04-15T07:56:51.000Z,1011.15
2023-04-15T07:57:51.000Z,1011.21
2023-04-15T07:58:52.000Z,1011.23
2023-04-15T07:59:53.000Z,1011.24
2023-04-15T08:00:54.000Z,1011.24
2023-04-15T08:01:54.000Z,1011.21
2023-04-15T08:02:55.000Z,1011.3
2023-04-15T08:03:55.000Z,1011.27
2023-04-15T08:04:56.000Z,1011.23
2023-04-15T08:05:56.000Z,1011.27
2023-04-15T08:06:57.000Z,1011.28
2023-04-15T08:07:58.000Z,1011.26
2023-04-15T08:08:58.000Z,1011.3
2023-04-15T08:09:59.000Z,1011.32
2023-04-15T08:10:59.000Z,1011.29
2023-04-15T08:12:00.000Z,1011.32
2023-04-15T08:13:00.000Z,1011.24
2023-04-15T08:14:01.000Z,1011.27
2023-04-15T08:15:01.000Z,1011.32
2023-04-15T08:16:02.000Z,1011.33
2023-04-15T08:17:02.000Z,1011.33
2023-04-15T08:18:03.000Z,1011.33
2023-04-15T08:19:03.000Z,1011.36
2023-04-15T08:20:04.000Z,1011.34
2023-04-15T08:21:04.000Z,1011.3
2023-04-15T08:22:05.000Z,1011.3
2023-04-15T08:23:06.000Z,1011.32
2023-04-15T08:24:06.000Z,1011.29
2023-04-15T08:25:07.000Z,1011.3
2023-04-15T08:26:07.000Z,1011.35
2023-04-15T08:27:08.000Z,1011.37
2023-04-15T08:28:08.000Z,1011.42
2023-04-15T08:29:09.000Z,1011.38
2023-04-15T08:30:09.000Z,1011.38
2023-04-15T08:31:10.000Z,1011.37
2023-04-15T08:32:11.000Z,1011.38
2023-04-15T08:33:16.000Z,1011.4
2023-04-15T08:34:17.000Z,1011.41
2023-04-15T08:35:17.000Z,1011.46
2023-04-15T08:36:18.000Z,1011.5
2023-04-15T08:37:18.000Z,1011.5
2023-04-15T08:38:19.000Z,1011.48
2023-04-15T08:39:19.000Z,1011.47
2023-04-15T08:40:20.000Z,1011.44
2023-04-15T08:41:21.000Z,1011.41
2023-04-15T08:42:21.000Z,1011.45
2023-04-15T08:43:22.000Z,1011.45
2023-04-15T08:44:22.000Z,1011.44
2023-04-15T08:45:23.000Z,1011.4
2023-04-15T08:46:23.000Z,1011.39
2023-04-15T08:47:24.000Z,1011.41
2023-04-15T08:48:24.000Z,1011.41
2023-04-15T08:49:30.000Z,1011.48
2023-04-15T08:50:31.000Z,1011.51
2023-04-15T08:51:31.000Z,1011.52
2023-04-15T08:52:32.000Z,1011.51
2023-04-15T08:53:32.000Z,1011.46
2023-04-15T08:54:33.000Z,1011.46
2023-04-15T08:55:34.000Z,1011.48
2023-04-15T08:56:34.000Z,1011.54
2023-04-15T08:57:35.000Z,1011.54
2023-04-15T08:58:35.000Z,1011.56
2023-04-15T08:59:36.000Z,1011.57
2023-04-15T09:00:36.000Z,1011.56
2023-04-15T09:01:37.000Z,1011.58
2023-04-15T09:02:37.000Z,1011.54
2023-04-15T09:03:38.000Z,1011.57
2023-04-15T09:04:38.000Z,1011.58
2023-04-15T09:05:39.000Z,1011.56
2023-04-15T09:06:40.000Z,1011.54
2023-04-15T09:07:40.000Z,1011.53
2023-04-15T09:08:41.000Z,1011.58
2023-04-15T09:09:41.000Z,1011.53
2023-04-15T09:10:42.000Z,1011.58
2023-04-15T09:11:42.000Z,1011.57
2023-04-15T09:12:43.000Z,1011.55
2023-04-15T09:13:43.000Z,1011.55
2023-04-15T09:14:44.000Z,1011.58
2023-04-15T09:15:45.000Z,1011.52
2023-04-15T09:16:45.000Z,1011.55
2023-04-15T09:17:46.000Z,1011.56
2023-04-15T09:18:46.000Z,1011.54
2023-04-15T09:19:47.000Z,1011.5
2023-04-15T09:20:47.000Z,1011.57
2023-04-15T09:21:48.000Z,1011.55
2023-04-15T09:22:48.000Z,1011.54
2023-04-15T09:23:49.000Z,1011.58
2023-04-15T09:24:50.000Z,1011.53
2023-04-15T09:25:50.000Z,1011.57
2023-04-15T09:26:51.000Z,1011.58
2023-04-15T09:27:51.000Z,1011.65
2023-04-15T09:28:52.000Z,1011.6
2023-04-15T09:29:52.000Z,1011.67
2023-04-15T09:30:53.000Z,1011.76
2023-04-15T09:31:53.000Z,1011.76
2023-04-15T09:32:54.000Z,1011.76
2023-04-15T09:33:55.000Z,1011.78
2023-04-15T09:34:55.000Z,1011.81
2023-04-15T09:35:56.000Z,1011.83
2023-04-15T09:36:56.000Z,1011.76
2023-04-15T09:38:02.000Z,1011.81
2023-04-15T09:39:02.000Z,1011.88
2023-04-15T09:40:03.000Z,1011.89
2023-04-15T09:41:03.000Z,1011.89
2023-04-15T09:42:09.000Z,1011.94
2023-04-15T09:43:09.000Z,1011.83
2023-04-15T09:44:10.000Z,1011.9
2023-04-15T09:45:10.000Z,1011.89
2023-04-15T09:46:11.000Z,1011.94
2023-04-15T09:47:11.000Z,1011.92
2023-04-15T09:48:12.000Z,1011.95
2023-04-15T09:49:12.000Z,1011.97
2023-04-15T09:50:13.000Z,1011.9
2023-04-15T09:51:13.000Z,1011.91
2023-04-15T09:52:14.000Z,1011.86
2023-04-15T09:53:14.000Z,1011.87
2023-04-15T09:54:15.000Z,1011.88
2023-04-15T09:55:15.000Z,1011.91
2023-04-15T09:56:16.000Z,1011.94
2023-04-15T09:57:16.000Z,1011.88
2023-04-15T09:58:17.000Z,1011.93
2023-04-15T09:59:17.000Z,1011.94
2023-04-15T10:00:18.000Z,1011.93
2023-04-15T10:01:18.000Z,1011.92
2023-04-15T10:02:19.000Z,1011.93
2023-04-15T10:03:19.000Z,1011.96
2023-04-15T10:04:20.000Z,1011.99
2023-04-15T10:05:20.000Z,1011.94
2023-04-15T10:06:21.000Z,1011.96
2023-04-15T10:07:21.000Z,1011.96
2023-04-15T10:08:22.000Z,1011.98
2023-04-15T10:09:22.000Z,1011.99
2023-04-15T10:10:23.000Z,1011.97
2023-04-15T10:11:23.000Z,1011.98
2023-04-15T10:12:24.000Z,1011.99
2023-04-15T10:13:24.000Z,1012.04
2023-04-15T10:14:25.000Z,1011.94
2023-04-15T10:15:25.000Z,1011.96
2023-04-15T10:16:26.000Z,1011.99
2023-04-15T10:17:26.000Z,1012.01
2023-04-15T10:18:27.000Z,1011.96
2023-04-15T10:19:27.000Z,1012.05
2023-04-15T10:20:28.000Z,1012.02
2023-04-15T10:21:28.000Z,1012.06
2023-04-15T10:22:29.000Z,1012.07
2023-04-15T10:23:29.000Z,1012.05
2023-04-15T10:24:30.000Z,1012.02
2023-04-15T10:25:30.000Z,1012.04
2023-04-15T10:26:31.000Z,1012.02
2023-04-15T10:27:31.000Z,1012.04
2023-04-15T10:28:32.000Z,1012.02
2023-04-15T10:29:32.000Z,1012.01
2023-04-15T10:30:33.000Z,1012.05
2023-04-15T10:31:33.000Z,1012.06
2023-04-15T10:32:34.000Z,1012.05
2023-04-15T10:33:34.000Z,1012.12
2023-04-15T10:34:35.000Z,1012.05
2023-04-15T10:35:36.000Z,1012.07
2023-04-15T10:36:36.000Z,1012.07
2023-04-15T10:37:36.000Z,1012.0
2023-04-15T10:38:37.000Z,1012.07
2023-04-15T10:39:38.000Z,1012.07
2023-04-15T10:40:38.000Z,1012.05
2023-04-15T10:41:39.000Z,1012.08
2023-04-15T10:42:39.000Z,1012.08
2023-04-15T10:43:40.000Z,1012.05
2023-04-15T10:44:40.000Z,1012.12
2023-04-15T10:45:41.000Z,1012.13
2023-04-15T10:46:41.000Z,1012.11
2023-04-15T10:47:42.000Z,1012.13
2023-04-15T10:48:42.000Z,1012.13
2023-04-15T10:49:43.000Z,1012.12
2023-04-15T10:50:43.000Z,1012.14
2023-04-15T10:51:44.000Z,1012.15
2023-04-15T10:52:44.000Z,1012.2
2023-04-15T10:53:45.000Z,1012.13
2023-04-15T10:54:45.000Z,1012.18
2023-04-15T10:55:47.000Z,1012.19
2023-04-15T10:56:47.000Z,1012.19
2023-04-15T10:57:48.000Z,1012.18
2023-04-15T10:58:48.000Z,1012.2
2023-04-15T10:59:49.000Z,1012.13
2023-04-15T11:00:49.000Z,1012.15
2023-04-15T11:01:50.000Z,1012.21
2023-04-15T11:02:50.000Z,1012.24
2023-04-15T11:03:51.000Z,1012.25
2023-04-15T11:04:51.000Z,1012.22
2023-04-15T11:05:52.000Z,1012.25
2023-04-15T11:06:52.000Z,1012.23
2023-04-15T11:07:53.000Z,1012.27
2023-04-15T11:08:53.000Z,1012.21
2023-04-15T11:09:53.000Z,1012.33
2023-04-15T11:10:54.000Z,1012.28
2023-04-15T11:11:54.000Z,1012.29
2023-04-15T11:12:55.000Z,1012.3
2023-04-15T11:13:55.000Z,1012.33
2023-04-15T11:14:56.000Z,1012.36
2023-04-15T11:15:56.000Z,1012.4
2023-04-15T11:17:02.000Z,1012.47
2023-04-15T11:18:02.000Z,1012.45
2023-04-15T11:19:03.000Z,1012.53
2023-04-15T11:20:03.000Z,1012.48
2023-04-15T11:21:04.000Z,1012.49
2023-04-15T11:22:04.000Z,1012.53
2023-04-15T11:23:05.000Z,1012.51
2023-04-15T11:24:05.000Z,1012.47
2023-04-15T11:25:05.000Z,1012.53
2023-04-15T11:26:06.000Z,1012.53
2023-04-15T11:27:06.000Z,1012.56
2023-04-15T11:28:07.000Z,1012.53
2023-04-15T11:29:07.000Z,1012.53
2023-04-15T11:30:08.000Z,1012.56
2023-04-15T11:31:08.000Z,1012.57
2023-04-15T11:32:09.000Z,1012.59
2023-04-15T11:33:09.000Z,1012.56
2023-04-15T11:34:10.000Z,1012.58
2023-04-15T11:35:10.000Z,1012.58
2023-04-15T11:36:11.000Z,1012.6
2023-04-15T11:37:11.000Z,1012.61
2023-04-15T11:38:12.000Z,1012.62
2023-04-15T11:39:12.000Z,1012.59
2023-04-15T11:40:13.000Z,1012.6
2023-04-15T11:41:13.000Z,1012.65
2023-04-15T11:42:14.000Z,1012.61
2023-04-15T11:43:14.000Z,1012.63
2023-04-15T11:44:15.000Z,1012.61
2023-04-15T11:45:15.000Z,1012.57
2023-04-15T11:46:16.000Z,1012.62
2023-04-15T11:47:16.000Z,1012.68
2023-04-15T11:48:17.000Z,1012.69
2023-04-15T11:49:17.000Z,1012.72
2023-04-15T11:50:19.000Z,1012.69
2023-04-15T11:51:19.000Z,1012.71
2023-04-15T11:52:20.000Z,1012.74
2023-04-15T11:53:20.000Z,1012.71
2023-04-15T11:54:21.000Z,1012.75
2023-04-15T11:55:21.000Z,1012.75
2023-04-15T11:56:22.000Z,1012.79
2023-04-15T11:57:22.000Z,1012.77
2023-04-15T11:58:23.000Z,1012.78
2023-04-15T11:59:23.000Z,1012.8
2023-04-15T12:00:24.000Z,1012.82
2023-04-15T12:01:24.000Z,1012.81
2023-04-15T12:02:25.000Z,1012.82
2023-04-15T12:03:26.000Z,1012.81
2023-04-15T12:04:26.000Z,1012.84
2023-04-15T12:05:27.000Z,1012.89
2023-04-15T12:06:27.000Z,1012.88
2023-04-15T12:07:28.000Z,1012.81
2023-04-15T12:08:28.000Z,1012.84
2023-04-15T12:09:29.000Z,1012.9
2023-04-15T12:10:29.000Z,1012.91
2023-04-15T12:11:30.000Z,1012.87
2023-04-15T12:12:30.000Z,1012.94
2023-04-15T12:13:31.000Z,1012.84
2023-04-15T12:14:31.000Z,1012.88
2023-04-15T12:15:32.000Z,1012.88